Weather at Istanbul Sabiha Gökçen International Airport

Public forecast

Using degrees Celsius for public forecast. Weather courtesy of forecast.io.

Current aviation weather report (METAR) for Istanbul Sabiha Gökçen International Airport

2024/05/28 04:50 (retrieved 39 minutes ago)

LTFJ 280450Z 29005KT 230V300 9999 FEW012 SCT035 16/12 Q1014 NOSIG

Closest aviation forecast (TAF) to Istanbul Sabiha Gökçen International Airport

Forecast is more than 6 hours old.

Closest forecast is Kukës International Airport, 405.7 nm (751.4 km) WNW.

2024/05/27 18:00 Ammendment (retrieved 11 hours ago)

TAF AMD LAKU 271900Z 2718/2818 CNL